createdAt,value
2017-06-10T00:00:07.963Z,101025.44
2017-06-10T00:02:34.763Z,101031.78
2017-06-10T00:05:02.243Z,101028.50
2017-06-10T00:07:31.623Z,101031.92
2017-06-10T00:10:03.649Z,101040.80
2017-06-10T00:12:30.298Z,101043.73
2017-06-10T00:14:57.386Z,101046.72
2017-06-10T00:17:29.953Z,101040.27
2017-06-10T00:20:03.005Z,101043.31
2017-06-10T00:22:34.513Z,101039.94
2017-06-10T00:25:01.023Z,101044.98
2017-06-10T00:27:27.753Z,101051.86
2017-06-10T00:29:54.301Z,101054.66
2017-06-10T00:32:25.988Z,101056.42
2017-06-10T00:34:53.361Z,101047.39
2017-06-10T00:37:19.814Z,101050.16
2017-06-10T00:39:46.274Z,101046.23
2017-06-10T00:42:12.712Z,101054.27
2017-06-10T00:44:39.323Z,101055.85
2017-06-10T00:47:06.136Z,101060.59
2017-06-10T00:49:38.291Z,101066.81
2017-06-10T00:52:10.048Z,101060.24
2017-06-10T00:54:36.553Z,101060.16
2017-06-10T00:57:03.601Z,101062.80
2017-06-10T00:59:41.044Z,101068.28
2017-06-10T01:02:07.384Z,101069.61
2017-06-10T01:04:33.983Z,101060.75
2017-06-10T01:07:06.405Z,101067.21
2017-06-10T01:09:32.733Z,101074.00
2017-06-10T01:11:59.733Z,101078.58
2017-06-10T01:14:28.268Z,101083.56
2017-06-10T01:16:55.720Z,101078.66
2017-06-10T01:19:22.305Z,101088.88
2017-06-10T01:21:52.289Z,101086.56
2017-06-10T01:24:19.519Z,101086.81
2017-06-10T01:26:51.191Z,101086.82
2017-06-10T01:29:23.783Z,101089.30
2017-06-10T01:31:55.751Z,101087.05
2017-06-10T01:34:23.059Z,101091.73
2017-06-10T01:36:49.590Z,101087.83
2017-06-10T01:39:16.264Z,101091.54
2017-06-10T01:41:48.073Z,101092.42
2017-06-10T01:44:18.617Z,101096.19
2017-06-10T01:46:45.008Z,101093.84
2017-06-10T01:49:12.336Z,101097.59
2017-06-10T01:51:41.792Z,101098.80
2017-06-10T01:54:13.485Z,101097.54
2017-06-10T01:56:44.990Z,101117.91
2017-06-10T01:59:11.571Z,101106.66
2017-06-10T02:01:38.066Z,101111.86
2017-06-10T02:04:04.496Z,101111.61
2017-06-10T02:06:31.702Z,101111.05
2017-06-10T02:08:58.279Z,101102.98
2017-06-10T02:11:24.700Z,101109.58
2017-06-10T02:13:51.456Z,101118.02
2017-06-10T02:16:18.027Z,101117.05
2017-06-10T02:18:49.600Z,101120.12
2017-06-10T02:21:16.052Z,101121.52
2017-06-10T02:23:43.054Z,101124.80
2017-06-10T02:26:10.151Z,101127.89
2017-06-10T02:28:37.158Z,101124.99
2017-06-10T02:31:03.814Z,101120.66
2017-06-10T02:33:30.596Z,101130.31
2017-06-10T02:35:57.151Z,101145.33
2017-06-10T02:38:23.646Z,101141.59
2017-06-10T02:40:50.140Z,101134.30
2017-06-10T02:43:16.557Z,101141.30
2017-06-10T02:45:43.856Z,101138.89
2017-06-10T02:48:10.363Z,101142.38
2017-06-10T02:50:36.785Z,101132.07
2017-06-10T02:53:04.278Z,101141.19
2017-06-10T02:55:34.558Z,101142.69
2017-06-10T02:58:04.265Z,101145.78
2017-06-10T03:00:30.642Z,101146.70
2017-06-10T03:02:56.975Z,101144.48
2017-06-10T03:05:23.480Z,101149.19
2017-06-10T03:07:49.998Z,101147.47
2017-06-10T03:10:22.725Z,101150.50
2017-06-10T03:12:50.180Z,101153.42
2017-06-10T03:15:17.624Z,101152.24
2017-06-10T03:17:44.389Z,101159.81
2017-06-10T03:20:11.335Z,101154.00
2017-06-10T03:22:38.829Z,101157.77
2017-06-10T03:25:05.241Z,101159.22
2017-06-10T03:27:33.531Z,101165.21
2017-06-10T03:29:59.884Z,101168.04
2017-06-10T03:32:31.763Z,101169.89
2017-06-10T03:34:58.411Z,101168.10
2017-06-10T03:37:25.495Z,101174.31
2017-06-10T03:39:51.831Z,101172.73
2017-06-10T03:42:18.253Z,101174.98
2017-06-10T03:44:45.193Z,101181.06
2017-06-10T03:47:11.625Z,101186.05
2017-06-10T03:49:38.042Z,101180.09
2017-06-10T03:52:04.447Z,101181.71
2017-06-10T03:54:30.759Z,101184.70
2017-06-10T03:56:57.091Z,101178.53
2017-06-10T03:59:23.459Z,101187.77
2017-06-10T04:01:49.996Z,101187.13
2017-06-10T04:04:16.341Z,101186.27
2017-06-10T04:06:42.690Z,101191.36
2017-06-10T04:09:09.029Z,101196.01
2017-06-10T04:11:35.395Z,101201.00
2017-06-10T04:14:01.756Z,101199.59
2017-06-10T04:16:28.084Z,101204.20
2017-06-10T04:18:54.420Z,101209.38
2017-06-10T04:21:20.744Z,101207.92
2017-06-10T04:23:47.083Z,101205.87
2017-06-10T04:26:13.414Z,101213.08
2017-06-10T04:28:39.775Z,101216.34
2017-06-10T04:31:06.120Z,101215.25
2017-06-10T04:33:32.472Z,101221.43
2017-06-10T04:35:58.800Z,101217.41
2017-06-10T04:38:25.173Z,101222.34
2017-06-10T04:40:51.538Z,101220.86
2017-06-10T04:43:17.859Z,101221.38
2017-06-10T04:45:44.212Z,101219.13
2017-06-10T04:48:10.552Z,101221.23
2017-06-10T04:50:36.893Z,101217.43
2017-06-10T04:53:03.906Z,101204.67
2017-06-10T04:55:30.276Z,101206.97
2017-06-10T04:58:01.057Z,101204.43
2017-06-10T05:00:27.570Z,101199.22
2017-06-10T05:02:53.935Z,101203.20
2017-06-10T05:05:21.006Z,101203.91
2017-06-10T05:07:47.353Z,101201.81
2017-06-10T05:10:13.690Z,101211.25
2017-06-10T05:12:40.026Z,101212.31
2017-06-10T05:15:06.366Z,101220.33
2017-06-10T05:17:32.683Z,101222.19
2017-06-10T05:19:59.021Z,101222.59
2017-06-10T05:22:25.380Z,101224.51
2017-06-10T05:24:51.776Z,101239.80
2017-06-10T05:27:18.122Z,101237.77
2017-06-10T05:29:44.466Z,101232.95
2017-06-10T05:32:10.795Z,101238.45
2017-06-10T05:34:37.204Z,101236.72
2017-06-10T05:37:03.581Z,101229.53
2017-06-10T05:39:29.898Z,101236.69
2017-06-10T05:41:56.240Z,101236.11
2017-06-10T05:44:22.639Z,101230.48
2017-06-10T05:46:49.000Z,101235.73
2017-06-10T05:49:15.353Z,101230.11
2017-06-10T05:51:41.733Z,101240.76
2017-06-10T05:54:08.097Z,101241.14
2017-06-10T05:56:34.431Z,101241.25
2017-06-10T05:59:00.779Z,101241.34
2017-06-10T06:01:27.158Z,101244.65
2017-06-10T06:03:53.461Z,101247.09
2017-06-10T06:06:19.809Z,101243.56
2017-06-10T06:08:46.145Z,101243.94
2017-06-10T06:11:12.498Z,101253.80
2017-06-10T06:13:38.848Z,101260.84
2017-06-10T06:16:05.174Z,101262.81
2017-06-10T06:18:31.505Z,101271.64
2017-06-10T06:20:57.854Z,101261.66
2017-06-10T06:23:24.241Z,101263.06
2017-06-10T06:25:50.579Z,101270.38
2017-06-10T06:28:16.933Z,101280.95
2017-06-10T06:30:43.288Z,101279.16
2017-06-10T06:33:09.600Z,101277.16
2017-06-10T06:35:35.923Z,101284.98
2017-06-10T06:38:02.250Z,101287.34
2017-06-10T06:40:28.610Z,101293.89
2017-06-10T06:42:54.966Z,101299.58
2017-06-10T06:45:21.324Z,101297.81
2017-06-10T06:47:47.671Z,101299.62
2017-06-10T06:50:14.019Z,101304.41
2017-06-10T06:52:40.411Z,101311.62
2017-06-10T06:55:06.747Z,101310.02
2017-06-10T06:57:33.085Z,101307.91
2017-06-10T06:59:59.464Z,101306.12
2017-06-10T07:02:25.791Z,101310.31
2017-06-10T07:04:52.129Z,101316.27
2017-06-10T07:07:18.527Z,101318.16
2017-06-10T07:09:44.862Z,101322.08
2017-06-10T07:12:11.190Z,101321.76
2017-06-10T07:14:37.524Z,101320.53
2017-06-10T07:17:03.881Z,101323.88
2017-06-10T07:19:30.213Z,101328.17
2017-06-10T07:21:56.548Z,101327.77
2017-06-10T07:24:22.908Z,101334.95
2017-06-10T07:26:49.263Z,101333.47
2017-06-10T07:29:15.632Z,101336.03
2017-06-10T07:31:41.973Z,101342.09
2017-06-10T07:34:08.311Z,101339.27
2017-06-10T07:36:34.725Z,101343.49
2017-06-10T07:39:01.056Z,101342.89
2017-06-10T07:41:27.382Z,101339.92
2017-06-10T07:43:53.710Z,101324.52
2017-06-10T07:46:20.125Z,101321.17
2017-06-10T07:48:46.625Z,101330.26
2017-06-10T07:51:13.101Z,101331.13
2017-06-10T07:53:39.431Z,101337.09
2017-06-10T07:56:05.750Z,101337.21
2017-06-10T07:58:32.097Z,101333.88
2017-06-10T08:00:58.434Z,101334.31
2017-06-10T08:03:24.777Z,101335.13
2017-06-10T08:05:51.112Z,101328.41
2017-06-10T08:08:17.438Z,101327.77
2017-06-10T08:13:01.557Z,101332.19
2017-06-10T08:15:27.917Z,101336.86
2017-06-10T08:17:54.248Z,101338.34
2017-06-10T08:20:20.593Z,101340.55
2017-06-10T08:22:46.914Z,101342.02
2017-06-10T08:25:13.232Z,101334.59
2017-06-10T08:27:39.606Z,101335.45
2017-06-10T08:30:05.954Z,101328.07
2017-06-10T08:32:33.040Z,101323.09
2017-06-10T08:34:59.370Z,101328.45
2017-06-10T08:37:25.740Z,101336.59
2017-06-10T08:39:52.090Z,101332.98
2017-06-10T08:42:18.410Z,101329.17
2017-06-10T08:44:44.729Z,101325.91
2017-06-10T08:47:11.062Z,101334.72
2017-06-10T08:49:37.431Z,101343.02
2017-06-10T08:52:03.754Z,101338.56
2017-06-10T08:54:30.082Z,101342.09
2017-06-10T08:56:56.454Z,101339.17
2017-06-10T08:59:22.801Z,101353.25
2017-06-10T09:01:49.132Z,101342.26
2017-06-10T09:04:15.469Z,101340.52
2017-06-10T09:06:41.817Z,101337.45
2017-06-10T09:09:08.169Z,101340.92
2017-06-10T09:11:34.513Z,101338.87
2017-06-10T09:14:00.865Z,101341.16
2017-06-10T09:16:28.159Z,101348.00
2017-06-10T09:18:54.482Z,101346.97
2017-06-10T09:21:20.824Z,101339.13
2017-06-10T09:23:47.161Z,101347.03
2017-06-10T09:26:13.519Z,101341.80
2017-06-10T09:28:39.859Z,101337.81
2017-06-10T09:31:06.209Z,101337.59
2017-06-10T09:33:32.567Z,101340.42
2017-06-10T09:35:58.922Z,101335.76
2017-06-10T09:38:25.251Z,101334.22
2017-06-10T09:40:51.599Z,101327.37
2017-06-10T09:43:17.935Z,101331.70
2017-06-10T09:45:44.270Z,101338.03
2017-06-10T09:48:10.601Z,101333.15
2017-06-10T09:50:36.939Z,101333.45
2017-06-10T09:53:03.303Z,101325.81
2017-06-10T09:55:29.713Z,101319.20
2017-06-10T09:57:56.058Z,101324.16
2017-06-10T10:00:22.369Z,101324.39
2017-06-10T10:02:48.721Z,101333.27
2017-06-10T10:05:15.065Z,101332.27
2017-06-10T10:07:41.449Z,101334.58
2017-06-10T10:10:07.796Z,101335.94
2017-06-10T10:12:34.138Z,101333.62
2017-06-10T10:15:00.485Z,101337.02
2017-06-10T10:17:26.837Z,101331.11
2017-06-10T10:19:53.168Z,101328.36
2017-06-10T10:22:19.633Z,101323.15
2017-06-10T10:24:45.982Z,101320.82
2017-06-10T10:27:12.321Z,101321.47
2017-06-10T10:29:38.691Z,101316.19
2017-06-10T10:32:05.157Z,101310.73
2017-06-10T10:34:31.490Z,101318.53
2017-06-10T10:36:57.838Z,101321.66
2017-06-10T10:39:24.158Z,101324.32
2017-06-10T10:41:50.629Z,101329.37
2017-06-10T10:44:16.947Z,101332.48
2017-06-10T10:46:43.305Z,101327.22
2017-06-10T10:49:09.621Z,101317.66
2017-06-10T10:51:36.057Z,101315.34
2017-06-10T10:54:02.407Z,101335.72
2017-06-10T10:56:28.719Z,101343.47
2017-06-10T10:58:55.173Z,101339.63
2017-06-10T11:01:22.288Z,101327.80
2017-06-10T11:03:48.682Z,101327.11
2017-06-10T11:06:15.295Z,101322.59
2017-06-10T11:08:41.668Z,101316.90
2017-06-10T11:11:09.298Z,101319.89
2017-06-10T11:13:36.717Z,101320.10
2017-06-10T11:16:03.627Z,101321.67
2017-06-10T11:18:29.997Z,101316.92
2017-06-10T11:20:56.338Z,101311.75
2017-06-10T11:23:22.694Z,101320.12
2017-06-10T11:25:49.086Z,101319.92
2017-06-10T11:28:15.455Z,101325.72
2017-06-10T11:30:41.870Z,101323.55
2017-06-10T11:33:08.208Z,101324.70
2017-06-10T11:35:34.558Z,101327.89
2017-06-10T11:38:00.938Z,101320.84
2017-06-10T11:40:27.355Z,101318.26
2017-06-10T11:42:53.768Z,101322.54
2017-06-10T11:45:20.142Z,101311.42
2017-06-10T11:47:46.497Z,101310.44
2017-06-10T11:50:12.851Z,101311.84
2017-06-10T11:52:39.182Z,101312.26
2017-06-10T11:55:05.576Z,101314.78
2017-06-10T11:57:31.991Z,101299.27
2017-06-10T11:59:58.362Z,101302.45
2017-06-10T12:02:24.708Z,101303.97
2017-06-10T12:04:51.072Z,101308.33
2017-06-10T12:07:17.599Z,101302.44
2017-06-10T12:09:45.579Z,101302.67
2017-06-10T12:12:12.173Z,101301.31
2017-06-10T12:14:38.932Z,101296.45
2017-06-10T12:17:05.325Z,101294.05
2017-06-10T12:19:31.966Z,101284.55
2017-06-10T12:21:58.497Z,101280.10
2017-06-10T12:24:24.942Z,101277.95
2017-06-10T12:26:51.512Z,101276.03
2017-06-10T12:29:17.907Z,101282.44
2017-06-10T12:31:44.564Z,101274.45
2017-06-10T12:34:11.021Z,101277.75
2017-06-10T12:36:37.368Z,101275.84
2017-06-10T12:39:03.854Z,101270.31
2017-06-10T12:41:30.215Z,101275.44
2017-06-10T12:43:56.524Z,101277.16
2017-06-10T12:46:22.990Z,101266.96
2017-06-10T12:48:49.810Z,101273.58
2017-06-10T12:51:16.124Z,101270.91
2017-06-10T12:53:42.455Z,101263.55
2017-06-10T12:56:09.069Z,101258.77
2017-06-10T12:58:35.473Z,101257.58
2017-06-10T13:01:02.290Z,101254.55
2017-06-10T13:03:28.692Z,101245.13
2017-06-10T13:05:55.002Z,101249.26
2017-06-10T13:08:21.369Z,101241.53
2017-06-10T13:10:47.705Z,101245.75
2017-06-10T13:13:14.053Z,101247.93
2017-06-10T13:15:40.362Z,101248.45
2017-06-10T13:18:06.687Z,101241.93
2017-06-10T13:20:33.153Z,101255.27
2017-06-10T13:22:59.524Z,101254.82
2017-06-10T13:25:25.848Z,101253.91
2017-06-10T13:27:52.179Z,101251.98
2017-06-10T13:30:18.514Z,101247.59
2017-06-10T13:32:44.875Z,101242.29
2017-06-10T13:35:11.194Z,101236.47
2017-06-10T13:37:37.549Z,101240.05
2017-06-10T13:40:03.954Z,101244.55
2017-06-10T13:42:30.346Z,101241.50
2017-06-10T13:44:56.694Z,101249.67
2017-06-10T13:47:23.069Z,101243.81
2017-06-10T13:49:49.521Z,101246.14
2017-06-10T13:52:15.877Z,101243.31
2017-06-10T13:54:42.220Z,101242.55
2017-06-10T13:57:08.562Z,101238.64
2017-06-10T13:59:34.965Z,101231.66
2017-06-10T14:02:01.396Z,101239.23
2017-06-10T14:04:27.740Z,101235.45
2017-06-10T14:06:54.101Z,101233.28
2017-06-10T14:09:20.475Z,101235.59
2017-06-10T14:11:46.854Z,101243.38
2017-06-10T14:14:13.232Z,101236.67
2017-06-10T14:16:39.604Z,101241.81
2017-06-10T14:19:05.944Z,101237.19
2017-06-10T14:21:32.353Z,101232.12
2017-06-10T14:23:58.697Z,101225.19
2017-06-10T14:26:25.071Z,101226.50
2017-06-10T14:28:51.427Z,101230.44
2017-06-10T14:31:17.807Z,101230.30
2017-06-10T14:33:44.163Z,101232.72
2017-06-10T14:36:10.584Z,101236.22
2017-06-10T14:38:36.930Z,101227.89
2017-06-10T14:41:03.273Z,101234.79
2017-06-10T14:43:29.627Z,101227.95
2017-06-10T14:45:55.984Z,101232.47
2017-06-10T14:48:22.333Z,101226.23
2017-06-10T14:50:49.325Z,101229.52
2017-06-10T14:53:15.695Z,101231.38
2017-06-10T14:55:42.161Z,101223.23
2017-06-10T14:58:08.506Z,101217.86
2017-06-10T15:00:34.909Z,101222.19
2017-06-10T15:03:01.679Z,101229.81
2017-06-10T15:05:28.617Z,101217.20
2017-06-10T15:07:54.995Z,101211.95
2017-06-10T15:10:21.533Z,101208.91
2017-06-10T15:12:48.250Z,101211.41
2017-06-10T15:15:19.322Z,101213.05
2017-06-10T15:17:45.643Z,101215.42
2017-06-10T15:20:12.089Z,101211.33
2017-06-10T15:22:38.432Z,101206.47
2017-06-10T15:25:04.762Z,101197.23
2017-06-10T15:27:31.143Z,101200.89
2017-06-10T15:29:57.486Z,101196.94
2017-06-10T15:32:23.828Z,101191.80
2017-06-10T15:34:50.169Z,101187.85
2017-06-10T15:37:16.501Z,101190.27
2017-06-10T15:39:42.855Z,101188.89
2017-06-10T15:42:09.213Z,101194.66
2017-06-10T15:44:35.570Z,101193.58
2017-06-10T15:47:01.942Z,101191.98
2017-06-10T15:49:28.280Z,101193.16
2017-06-10T15:51:54.602Z,101192.32
2017-06-10T15:54:20.962Z,101191.92
2017-06-10T15:56:47.319Z,101193.44
2017-06-10T15:59:13.634Z,101191.08
2017-06-10T16:01:40.010Z,101184.14
2017-06-10T16:04:06.360Z,101183.32
2017-06-10T16:06:32.712Z,101188.81
2017-06-10T16:08:59.061Z,101181.88
2017-06-10T16:11:25.442Z,101181.99
2017-06-10T16:13:51.838Z,101189.63
2017-06-10T16:16:18.275Z,101181.70
2017-06-10T16:18:44.623Z,101185.44
2017-06-10T16:21:10.955Z,101185.52
2017-06-10T16:23:37.301Z,101188.48
2017-06-10T16:26:03.642Z,101180.23
2017-06-10T16:28:30.007Z,101175.44
2017-06-10T16:30:56.329Z,101174.50
2017-06-10T16:33:22.688Z,101172.52
2017-06-10T16:35:49.009Z,101168.14
2017-06-10T16:38:15.349Z,101164.55
2017-06-10T16:40:41.691Z,101167.28
2017-06-10T16:43:08.139Z,101163.61
2017-06-10T16:45:34.468Z,101163.91
2017-06-10T16:48:00.804Z,101156.59
2017-06-10T16:50:27.161Z,101158.64
2017-06-10T16:52:53.599Z,101153.88
2017-06-10T16:55:19.949Z,101159.62
2017-06-10T17:06:33.332Z,101158.10
2017-06-10T17:11:36.649Z,101164.33
2017-06-10T17:14:03.077Z,101165.13
2017-06-10T17:16:29.402Z,101168.32
2017-06-10T17:18:55.753Z,101163.01
2017-06-10T17:21:22.099Z,101165.84
2017-06-10T17:23:48.473Z,101171.83
2017-06-10T17:26:14.802Z,101171.41
2017-06-10T17:28:41.133Z,101174.99
2017-06-10T17:31:07.477Z,101176.59
2017-06-10T17:33:33.809Z,101177.63
2017-06-10T17:36:00.170Z,101185.09
2017-06-10T17:38:26.534Z,101178.05
2017-06-10T17:40:52.878Z,101174.73
2017-06-10T17:43:19.236Z,101179.97
2017-06-10T17:45:45.582Z,101173.38
2017-06-10T17:48:11.979Z,101179.41
2017-06-10T17:50:38.358Z,101179.84
2017-06-10T17:53:04.702Z,101182.74
2017-06-10T17:55:31.077Z,101179.48
2017-06-10T17:57:57.477Z,101176.59
2017-06-10T18:00:23.823Z,101182.45
2017-06-10T18:02:50.196Z,101174.81
2017-06-10T18:05:16.533Z,101180.17
2017-06-10T18:07:49.147Z,101181.02
2017-06-10T18:10:15.458Z,101179.57
2017-06-10T18:12:41.783Z,101180.86
2017-06-10T18:15:08.126Z,101181.80
2017-06-10T18:17:34.542Z,101186.20
2017-06-10T18:20:00.983Z,101179.57
2017-06-10T18:22:27.402Z,101177.55
2017-06-10T18:24:53.817Z,101174.49
2017-06-10T18:27:20.200Z,101180.22
2017-06-10T18:29:46.567Z,101178.98
2017-06-10T18:32:12.962Z,101177.83
2017-06-10T18:34:39.306Z,101175.89
2017-06-10T18:37:05.643Z,101170.44
2017-06-10T18:39:31.977Z,101174.86
2017-06-10T18:41:58.328Z,101177.22
2017-06-10T18:44:24.727Z,101178.14
2017-06-10T18:46:51.042Z,101184.05
2017-06-10T18:49:17.358Z,101184.17
2017-06-10T18:51:43.662Z,101182.70
2017-06-10T18:54:09.998Z,101180.36
2017-06-10T18:56:36.432Z,101176.67
2017-06-10T18:59:02.855Z,101173.64
2017-06-10T19:01:29.204Z,101179.45
2017-06-10T19:03:55.523Z,101176.69
2017-06-10T19:06:28.562Z,101173.70
2017-06-10T19:09:01.613Z,101177.34
2017-06-10T19:11:27.911Z,101172.18
2017-06-10T19:13:54.216Z,101178.02
2017-06-10T19:16:20.545Z,101174.34
2017-06-10T19:18:46.885Z,101169.78
2017-06-10T19:21:13.215Z,101172.84
2017-06-10T19:23:39.552Z,101176.41
2017-06-10T19:26:05.873Z,101175.93
2017-06-10T19:28:32.220Z,101178.56
2017-06-10T19:30:58.579Z,101175.38
2017-06-10T19:33:24.920Z,101173.86
2017-06-10T19:35:51.253Z,101173.75
2017-06-10T19:38:17.600Z,101175.35
2017-06-10T19:40:43.998Z,101175.02
2017-06-10T19:43:10.339Z,101177.70
2017-06-10T19:45:36.689Z,101185.15
2017-06-10T19:48:03.041Z,101184.70
2017-06-10T19:50:29.372Z,101187.36
2017-06-10T19:52:55.714Z,101191.03
2017-06-10T19:55:22.082Z,101188.05
2017-06-10T19:57:48.409Z,101192.67
2017-06-10T20:00:14.741Z,101195.16
2017-06-10T20:02:41.071Z,101203.85
2017-06-10T20:05:07.423Z,101210.25
2017-06-10T20:07:33.752Z,101207.48
2017-06-10T20:10:00.087Z,101208.45
2017-06-10T20:12:26.450Z,101203.80
2017-06-10T20:14:53.966Z,101207.41
2017-06-10T20:17:20.320Z,101215.63
2017-06-10T20:19:46.666Z,101210.89
2017-06-10T20:22:13.004Z,101209.11
2017-06-10T20:24:39.352Z,101213.02
2017-06-10T20:27:05.709Z,101211.01
2017-06-10T20:29:32.020Z,101204.16
2017-06-10T20:31:58.350Z,101211.30
2017-06-10T20:34:24.719Z,101207.89
2017-06-10T20:36:51.074Z,101209.44
2017-06-10T20:39:17.469Z,101211.48
2017-06-10T20:41:43.843Z,101214.34
2017-06-10T20:44:10.191Z,101213.55
2017-06-10T20:46:36.576Z,101215.65
2017-06-10T20:49:02.926Z,101208.52
2017-06-10T20:51:29.277Z,101211.15
2017-06-10T20:53:55.629Z,101210.39
2017-06-10T20:56:21.993Z,101216.20
2017-06-10T20:58:48.428Z,101220.01
2017-06-10T21:01:14.777Z,101217.29
2017-06-10T21:03:41.110Z,101221.77
2017-06-10T21:06:07.471Z,101226.17
2017-06-10T21:08:33.827Z,101222.77
2017-06-10T21:11:00.178Z,101226.19
2017-06-10T21:13:26.513Z,101226.67
2017-06-10T21:15:52.827Z,101217.88
2017-06-10T21:18:19.186Z,101215.53
2017-06-10T21:20:45.508Z,101214.67
2017-06-10T21:23:11.845Z,101221.06
2017-06-10T21:25:38.197Z,101222.11
2017-06-10T21:28:04.576Z,101221.20
2017-06-10T21:30:30.925Z,101209.20
2017-06-10T21:32:57.254Z,101217.27
2017-06-10T21:35:23.649Z,101214.19
2017-06-10T21:37:50.060Z,101210.77
2017-06-10T21:40:16.385Z,101208.41
2017-06-10T21:42:42.856Z,101212.88
2017-06-10T21:45:09.227Z,101203.59
2017-06-10T21:47:35.600Z,101201.02
2017-06-10T21:50:02.033Z,101196.42
2017-06-10T21:52:28.360Z,101203.66
2017-06-10T21:54:54.704Z,101192.71
2017-06-10T21:57:21.030Z,101189.05
2017-06-10T21:59:47.379Z,101191.86
2017-06-10T22:02:13.697Z,101191.61
2017-06-10T22:04:40.110Z,101189.36
2017-06-10T22:07:06.419Z,101190.48
2017-06-10T22:09:32.747Z,101187.94
2017-06-10T22:11:59.133Z,101190.69
2017-06-10T22:14:25.461Z,101188.23
2017-06-10T22:16:51.838Z,101190.17
2017-06-10T22:19:18.158Z,101191.20
2017-06-10T22:21:44.577Z,101184.42
2017-06-10T22:24:10.908Z,101184.89
2017-06-10T22:26:37.245Z,101186.62
2017-06-10T22:29:03.583Z,101184.92
2017-06-10T22:31:29.929Z,101186.16
2017-06-10T22:33:56.283Z,101181.75
2017-06-10T22:36:22.616Z,101178.53
2017-06-10T22:38:48.975Z,101178.96
2017-06-10T22:41:15.355Z,101167.30
2017-06-10T22:43:41.692Z,101172.72
2017-06-10T22:46:08.029Z,101169.78
2017-06-10T22:48:34.364Z,101166.73
2017-06-10T22:51:00.696Z,101162.13
2017-06-10T22:53:27.079Z,101162.35
2017-06-10T22:55:53.402Z,101164.25
2017-06-10T22:58:19.850Z,101162.95
2017-06-10T23:00:46.211Z,101170.09
2017-06-10T23:03:12.609Z,101163.58
2017-06-10T23:05:38.942Z,101167.65
2017-06-10T23:08:05.274Z,101174.54
2017-06-10T23:10:31.770Z,101165.95
2017-06-10T23:12:58.100Z,101164.84
2017-06-10T23:15:24.431Z,101169.12
2017-06-10T23:17:50.757Z,101167.70
2017-06-10T23:20:17.099Z,101170.59
2017-06-10T23:22:43.459Z,101166.62
2017-06-10T23:25:09.830Z,101172.59
2017-06-10T23:27:36.183Z,101174.83
2017-06-10T23:30:02.517Z,101174.83
2017-06-10T23:32:28.857Z,101171.80
2017-06-10T23:34:55.188Z,101177.03
2017-06-10T23:37:21.532Z,101175.81
2017-06-10T23:39:47.860Z,101173.17
2017-06-10T23:42:14.179Z,101167.57
2017-06-10T23:44:40.527Z,101174.87
2017-06-10T23:47:06.889Z,101173.17
2017-06-10T23:49:33.230Z,101172.56
2017-06-10T23:51:59.572Z,101169.63
2017-06-10T23:54:25.927Z,101176.44
2017-06-10T23:56:52.330Z,101166.73
2017-06-10T23:59:18.672Z,101171.23
